LJMB/MBX METAR and TAF weather

Enter ICAO airport designator
Station Type Date Time Source
LJMB METAR 2019/08/23 15:30 UTC NOAA

LJMB 231530Z 35008KT 9999 FEW030 SCT180 25/18 Q1023


Station Type Date Time Source
LJMB Decoded METAR 2019/08/23 15:30 UTC NOAA

Station name not available
Aug 23, 2019 - 11:30 AM EDT / 2019.08.23 1530 UTC
Wind: from the N (350 degrees) at 9 MPH (8 KT):0
Visibility: greater than 7 mile(s):0
Sky conditions: partly cloudy
Temperature: 77 F (25 C)
Dew Point: 64 F (18 C)
Relative Humidity: 65%
Pressure (altimeter): 30.21 in. Hg (1023 hPa)
ob: LJMB 231530Z 35008KT 9999 FEW030 SCT180 25/18 Q1023
cycle: 15

Station Type Date Time Source
LJMB TAF 2019/08/23 15:07 UTC NOAA

TAF LJMB 231400Z 2315/2415 36005KT 9999 SCT030 SCT080
TEMPO 2315/2415 36010KT SHRA BKN035TCU PROB30
TEMPO 2315/2415 VRB10KT 7000 TSRA BKN035CB

Example: see airport list